createdAt,value
2023-06-17T00:00:43.166Z,100.00
2023-06-17T00:03:10.294Z,100.00
2023-06-17T00:05:37.426Z,100.00
2023-06-17T00:08:04.047Z,100.00
2023-06-17T00:10:30.664Z,100.00
2023-06-17T00:12:59.589Z,100.00
2023-06-17T00:15:26.448Z,100.00
2023-06-17T00:17:53.359Z,100.00
2023-06-17T00:20:21.572Z,100.00
2023-06-17T00:22:48.492Z,100.00
2023-06-17T00:25:15.182Z,100.00
2023-06-17T00:27:42.876Z,100.00
2023-06-17T00:30:09.769Z,100.00
2023-06-17T00:32:37.323Z,100.00
2023-06-17T00:35:07.104Z,100.00
2023-06-17T00:37:34.060Z,100.00
2023-06-17T00:40:00.918Z,100.00
2023-06-17T00:42:27.662Z,100.00
2023-06-17T00:44:54.381Z,100.00
2023-06-17T00:47:21.137Z,100.00
2023-06-17T00:49:48.409Z,100.00
2023-06-17T00:52:35.667Z,100.00
2023-06-17T00:55:03.600Z,100.00
2023-06-17T00:57:30.466Z,100.00
2023-06-17T00:59:58.203Z,100.00
2023-06-17T01:02:27.231Z,100.00
2023-06-17T01:04:55.730Z,100.00
2023-06-17T01:07:25.348Z,100.00
2023-06-17T01:10:02.041Z,100.00
2023-06-17T01:12:29.508Z,100.00
2023-06-17T01:14:58.544Z,100.00
2023-06-17T01:17:27.536Z,100.00
2023-06-17T01:19:57.829Z,100.00
2023-06-17T01:22:26.280Z,100.00
2023-06-17T01:24:53.314Z,100.00
2023-06-17T01:27:24.548Z,100.00
2023-06-17T01:29:51.666Z,100.00
2023-06-17T01:32:18.390Z,100.00
2023-06-17T01:34:56.188Z,100.00
2023-06-17T01:37:39.605Z,100.00
2023-06-17T01:40:09.923Z,100.00
2023-06-17T01:42:39.462Z,100.00
2023-06-17T01:45:07.675Z,100.00
2023-06-17T01:47:36.337Z,100.00
2023-06-17T01:50:05.901Z,100.00
2023-06-17T01:52:33.359Z,100.00
2023-06-17T01:55:01.090Z,100.00
2023-06-17T01:57:28.139Z,100.00
2023-06-17T01:59:55.640Z,100.00
2023-06-17T02:02:22.924Z,100.00
2023-06-17T02:04:50.110Z,100.00
2023-06-17T02:07:19.801Z,100.00
2023-06-17T02:09:47.097Z,100.00
2023-06-17T02:12:14.144Z,100.00
2023-06-17T02:14:40.754Z,100.00
2023-06-17T02:17:09.748Z,100.00
2023-06-17T02:19:36.729Z,100.00
2023-06-17T02:22:03.774Z,100.00
2023-06-17T02:24:30.640Z,100.00
2023-06-17T02:26:58.083Z,100.00
2023-06-17T02:29:26.410Z,100.00
2023-06-17T02:31:53.319Z,100.00
2023-06-17T02:34:20.498Z,100.00
2023-06-17T02:36:47.612Z,100.00
2023-06-17T02:39:14.395Z,100.00
2023-06-17T02:41:41.001Z,100.00
2023-06-17T02:44:07.640Z,100.00
2023-06-17T02:46:34.410Z,100.00
2023-06-17T02:49:01.159Z,100.00
2023-06-17T02:51:29.066Z,100.00
2023-06-17T02:53:55.948Z,100.00
2023-06-17T02:56:22.670Z,100.00
2023-06-17T02:58:49.357Z,100.00
2023-06-17T03:01:17.716Z,100.00
2023-06-17T03:03:44.423Z,100.00
2023-06-17T03:06:11.028Z,100.00
2023-06-17T03:08:41.327Z,100.00
2023-06-17T03:11:08.199Z,100.00
2023-06-17T03:13:34.728Z,100.00
2023-06-17T03:16:02.474Z,100.00
2023-06-17T03:18:30.927Z,100.00
2023-06-17T03:20:57.580Z,100.00
2023-06-17T03:23:24.684Z,100.00
2023-06-17T03:25:52.932Z,100.00
2023-06-17T03:28:19.873Z,100.00
2023-06-17T03:30:48.554Z,100.00
2023-06-17T03:33:15.495Z,100.00
2023-06-17T03:35:42.211Z,100.00
2023-06-17T03:38:09.297Z,100.00
2023-06-17T03:40:35.959Z,100.00
2023-06-17T03:43:02.543Z,100.00
2023-06-17T03:45:32.233Z,100.00
2023-06-17T03:47:59.433Z,100.00
2023-06-17T03:50:26.361Z,100.00
2023-06-17T03:52:52.969Z,100.00
2023-06-17T03:55:19.683Z,100.00
2023-06-17T03:57:46.403Z,100.00
2023-06-17T04:00:15.029Z,100.00
2023-06-17T04:02:46.219Z,100.00
2023-06-17T04:05:13.577Z,100.00
2023-06-17T04:07:41.187Z,100.00
2023-06-17T04:10:09.585Z,100.00
2023-06-17T04:12:42.567Z,100.00
2023-06-17T04:15:09.641Z,100.00
2023-06-17T04:17:37.774Z,100.00
2023-06-17T04:20:13.379Z,100.00
2023-06-17T04:22:41.270Z,100.00
2023-06-17T04:25:09.902Z,100.00
2023-06-17T04:27:37.788Z,100.00
2023-06-17T04:30:05.598Z,100.00
2023-06-17T04:32:36.427Z,100.00
2023-06-17T04:35:07.273Z,100.00
2023-06-17T04:37:33.995Z,100.00
2023-06-17T04:40:00.689Z,100.00
2023-06-17T04:42:27.736Z,100.00
2023-06-17T04:44:54.289Z,100.00
2023-06-17T04:47:23.749Z,100.00
2023-06-17T04:49:52.850Z,100.00
2023-06-17T04:52:25.837Z,100.00
2023-06-17T04:54:52.843Z,100.00
2023-06-17T04:57:19.735Z,100.00
2023-06-17T04:59:46.577Z,100.00
2023-06-17T05:02:14.523Z,100.00
2023-06-17T05:04:41.566Z,100.00
2023-06-17T05:07:08.209Z,100.00
2023-06-17T05:09:34.837Z,100.00
2023-06-17T05:12:01.430Z,100.00
2023-06-17T05:14:28.009Z,100.00
2023-06-17T05:16:54.654Z,100.00
2023-06-17T05:19:21.271Z,100.00
2023-06-17T05:21:47.928Z,100.00
2023-06-17T05:24:14.510Z,100.00
2023-06-17T05:26:41.137Z,100.00
2023-06-17T05:29:07.674Z,100.00
2023-06-17T05:31:34.213Z,100.00
2023-06-17T05:34:00.867Z,100.00
2023-06-17T05:36:27.437Z,100.00
2023-06-17T05:38:54.007Z,100.00
2023-06-17T05:41:20.515Z,100.00
2023-06-17T05:43:47.544Z,100.00
2023-06-17T05:46:14.207Z,100.00
2023-06-17T05:48:40.820Z,100.00
2023-06-17T05:51:07.572Z,100.00
2023-06-17T05:53:34.157Z,100.00
2023-06-17T05:56:00.834Z,100.00
2023-06-17T05:58:27.413Z,100.00
2023-06-17T06:00:53.996Z,100.00
2023-06-17T06:03:21.076Z,100.00
2023-06-17T06:05:47.585Z,100.00
2023-06-17T06:08:14.139Z,100.00
2023-06-17T06:10:41.747Z,100.00
2023-06-17T06:13:09.840Z,100.00
2023-06-17T06:15:36.396Z,100.00
2023-06-17T06:18:02.956Z,100.00
2023-06-17T06:20:30.190Z,100.00
2023-06-17T06:22:56.841Z,100.00
2023-06-17T06:25:23.414Z,100.00
2023-06-17T06:27:51.698Z,100.00
2023-06-17T06:30:18.534Z,100.00
2023-06-17T06:32:45.695Z,100.00
2023-06-17T06:35:12.334Z,100.00
2023-06-17T06:37:38.983Z,100.00
2023-06-17T06:40:06.561Z,100.00
2023-06-17T06:42:33.189Z,83.83
2023-06-17T06:44:59.739Z,80.66
2023-06-17T06:47:26.329Z,78.79
2023-06-17T06:49:53.008Z,73.72
2023-06-17T06:52:19.539Z,72.86
2023-06-17T06:54:46.157Z,71.68
2023-06-17T06:57:12.895Z,67.68
2023-06-17T06:59:39.456Z,65.92
2023-06-17T07:02:06.538Z,66.00
2023-06-17T07:04:33.154Z,66.16
2023-06-17T07:06:59.701Z,63.80
2023-06-17T07:09:26.399Z,63.83
2023-06-17T07:11:52.944Z,63.64
2023-06-17T07:14:20.017Z,61.05
2023-06-17T07:16:46.601Z,60.36
2023-06-17T07:19:13.222Z,58.30
2023-06-17T07:21:39.719Z,57.93
2023-06-17T07:24:06.497Z,61.04
2023-06-17T07:26:33.406Z,59.31
2023-06-17T07:29:02.435Z,57.69
2023-06-17T07:31:32.290Z,57.42
2023-06-17T07:34:00.076Z,55.78
2023-06-17T07:36:26.913Z,52.04
2023-06-17T07:38:54.058Z,53.49
2023-06-17T07:41:21.776Z,55.22
2023-06-17T07:43:48.357Z,53.83
2023-06-17T07:46:16.023Z,53.54
2023-06-17T07:48:42.535Z,52.78
2023-06-17T07:51:09.154Z,54.71
2023-06-17T07:53:35.705Z,53.81
2023-06-17T07:56:02.358Z,52.92
2023-06-17T07:58:29.873Z,51.65
2023-06-17T08:01:06.760Z,52.32
2023-06-17T08:03:33.361Z,52.86
2023-06-17T08:05:59.911Z,53.07
2023-06-17T08:08:26.404Z,50.34
2023-06-17T08:10:52.945Z,50.42
2023-06-17T08:13:19.449Z,50.57
2023-06-17T08:15:46.028Z,48.73
2023-06-17T08:18:12.729Z,47.91
2023-06-17T08:20:40.909Z,45.88
2023-06-17T08:23:08.886Z,46.90
2023-06-17T08:25:35.571Z,47.92
2023-06-17T08:28:02.274Z,45.07
2023-06-17T08:30:28.836Z,46.99
2023-06-17T08:32:55.589Z,47.37
2023-06-17T08:35:22.201Z,47.25
2023-06-17T08:37:48.739Z,43.71
2023-06-17T08:40:17.008Z,41.60
2023-06-17T08:42:43.732Z,43.77
2023-06-17T08:45:10.671Z,41.97
2023-06-17T08:47:37.647Z,41.35
2023-06-17T08:50:06.364Z,42.14
2023-06-17T08:52:34.587Z,43.79
2023-06-17T08:55:02.972Z,42.75
2023-06-17T08:57:29.512Z,39.91
2023-06-17T08:59:56.459Z,41.08
2023-06-17T09:02:23.789Z,40.42
2023-06-17T09:04:50.599Z,40.15
2023-06-17T09:07:17.302Z,41.30
2023-06-17T09:09:49.564Z,41.79
2023-06-17T09:12:16.079Z,40.90
2023-06-17T09:14:45.994Z,40.68
2023-06-17T09:17:28.734Z,39.66
2023-06-17T09:19:56.365Z,39.94
2023-06-17T09:22:27.301Z,38.09
2023-06-17T09:24:58.841Z,40.28
2023-06-17T09:27:27.160Z,42.07
2023-06-17T09:30:14.534Z,42.17
2023-06-17T09:32:42.704Z,40.85
2023-06-17T09:35:16.043Z,38.36
2023-06-17T09:38:02.322Z,36.80
2023-06-17T09:40:32.805Z,36.34
2023-06-17T09:43:09.501Z,37.37
2023-06-17T09:45:50.736Z,35.75
2023-06-17T09:48:21.725Z,36.74
2023-06-17T09:50:53.833Z,38.29
2023-06-17T09:53:21.091Z,38.59
2023-06-17T09:55:48.102Z,38.53
2023-06-17T09:58:16.829Z,39.85
2023-06-17T10:00:46.649Z,37.31
2023-06-17T10:03:15.460Z,36.59
2023-06-17T10:05:42.366Z,34.38
2023-06-17T10:08:09.313Z,34.36
2023-06-17T10:10:37.329Z,34.46
2023-06-17T10:13:06.436Z,36.15
2023-06-17T10:15:33.583Z,36.07
2023-06-17T10:18:01.796Z,36.53
2023-06-17T10:20:33.232Z,34.88
2023-06-17T10:23:03.017Z,34.65
2023-06-17T10:25:29.657Z,33.59
2023-06-17T10:27:56.578Z,33.94
2023-06-17T10:30:27.760Z,32.60
2023-06-17T10:33:02.594Z,32.95
2023-06-17T10:35:39.023Z,33.95
2023-06-17T10:38:05.889Z,33.68
2023-06-17T10:40:36.932Z,33.05
2023-06-17T10:43:04.502Z,31.72
2023-06-17T10:45:53.032Z,31.55
2023-06-17T10:48:25.823Z,32.10
2023-06-17T10:50:57.520Z,31.38
2023-06-17T10:53:29.963Z,31.33
2023-06-17T10:56:00.462Z,32.46
2023-06-17T10:58:36.447Z,29.90
2023-06-17T11:01:07.711Z,29.16
2023-06-17T11:03:34.911Z,30.14
2023-06-17T11:06:33.149Z,30.40
2023-06-17T11:09:17.315Z,31.12
2023-06-17T11:11:43.827Z,32.43
2023-06-17T11:14:10.366Z,32.21
2023-06-17T11:16:36.894Z,33.72
2023-06-17T11:19:03.461Z,33.19
2023-06-17T11:21:30.052Z,31.63
2023-06-17T11:23:56.638Z,31.66
2023-06-17T11:26:25.366Z,30.39
2023-06-17T11:28:52.841Z,30.12
2023-06-17T11:31:21.322Z,30.15
2023-06-17T11:33:49.135Z,30.18
2023-06-17T11:36:18.869Z,31.05
2023-06-17T11:38:46.760Z,31.24
2023-06-17T11:41:13.416Z,32.18
2023-06-17T11:43:41.161Z,30.99
2023-06-17T11:46:08.296Z,29.01
2023-06-17T11:48:35.743Z,28.14
2023-06-17T11:51:02.906Z,27.24
2023-06-17T11:53:37.438Z,27.15
2023-06-17T11:56:08.310Z,27.86
2023-06-17T11:58:38.814Z,27.57
2023-06-17T12:01:06.003Z,28.87
2023-06-17T12:03:32.722Z,30.38
2023-06-17T12:06:00.053Z,29.52
2023-06-17T12:08:56.548Z,30.95
2023-06-17T12:11:32.722Z,29.72
2023-06-17T12:14:00.310Z,30.66
2023-06-17T12:16:35.480Z,30.50
2023-06-17T12:19:07.347Z,29.64
2023-06-17T12:21:34.813Z,30.08
2023-06-17T12:24:04.680Z,29.04
2023-06-17T12:26:33.070Z,30.17
2023-06-17T12:29:03.015Z,29.72
2023-06-17T12:31:32.346Z,30.05
2023-06-17T12:34:00.955Z,29.19
2023-06-17T12:36:27.819Z,30.04
2023-06-17T12:38:54.488Z,29.72
2023-06-17T12:41:21.054Z,30.58
2023-06-17T12:46:15.531Z,29.11
2023-06-17T12:48:45.370Z,29.82
2023-06-17T12:51:12.938Z,28.95
2023-06-17T12:53:40.179Z,28.97
2023-06-17T12:56:06.765Z,28.69
2023-06-17T12:58:34.565Z,27.07
2023-06-17T13:01:02.570Z,27.65
2023-06-17T13:03:29.343Z,28.56
2023-06-17T13:05:55.991Z,28.29
2023-06-17T13:08:22.571Z,28.55
2023-06-17T13:10:49.325Z,29.95
2023-06-17T13:13:16.867Z,29.61
2023-06-17T13:15:43.608Z,27.11
2023-06-17T13:18:10.243Z,28.44
2023-06-17T13:20:36.908Z,29.57
2023-06-17T13:23:04.118Z,28.12
2023-06-17T13:25:30.689Z,28.51
2023-06-17T13:27:57.613Z,27.05
2023-06-17T13:30:25.796Z,25.27
2023-06-17T13:32:52.815Z,26.20
2023-06-17T13:35:19.629Z,26.69
2023-06-17T13:37:47.512Z,25.85
2023-06-17T13:40:14.146Z,27.27
2023-06-17T13:42:40.705Z,25.84
2023-06-17T13:45:08.203Z,26.64
2023-06-17T13:47:34.916Z,25.06
2023-06-17T13:50:01.716Z,25.12
2023-06-17T13:52:28.573Z,25.21
2023-06-17T13:54:55.311Z,24.90
2023-06-17T13:57:21.860Z,25.04
2023-06-17T13:59:48.539Z,25.79
2023-06-17T14:02:15.239Z,25.42
2023-06-17T14:04:43.350Z,25.38
2023-06-17T14:07:10.327Z,25.82
2023-06-17T14:09:37.298Z,25.27
2023-06-17T14:12:04.208Z,27.00
2023-06-17T14:14:31.242Z,26.01
2023-06-17T14:16:58.658Z,26.47
2023-06-17T14:19:25.199Z,27.73
2023-06-17T14:22:03.271Z,27.50
2023-06-17T14:24:29.875Z,27.29
2023-06-17T14:27:14.651Z,26.34
2023-06-17T14:29:41.217Z,27.22
2023-06-17T14:32:08.257Z,27.36
2023-06-17T14:34:35.011Z,26.99
2023-06-17T14:37:01.574Z,27.75
2023-06-17T14:39:28.103Z,27.31
2023-06-17T14:41:54.684Z,26.77
2023-06-17T14:44:21.435Z,26.56
2023-06-17T14:46:48.190Z,26.49
2023-06-17T14:49:14.729Z,26.16
2023-06-17T14:51:43.113Z,26.26
2023-06-17T14:54:09.625Z,26.79
2023-06-17T14:56:37.502Z,27.60
2023-06-17T14:59:04.985Z,26.57
2023-06-17T15:01:35.909Z,27.47
2023-06-17T15:04:07.755Z,27.49
2023-06-17T15:06:35.779Z,27.22
2023-06-17T15:09:27.645Z,25.79
2023-06-17T15:11:58.481Z,25.35
2023-06-17T15:14:33.465Z,26.14
2023-06-17T15:17:01.108Z,26.67
2023-06-17T15:19:27.723Z,26.30
2023-06-17T15:21:54.570Z,27.35
2023-06-17T15:24:21.197Z,26.44
2023-06-17T15:26:47.833Z,26.52
2023-06-17T15:29:15.022Z,26.10
2023-06-17T15:31:41.771Z,25.90
2023-06-17T15:34:08.419Z,25.82
2023-06-17T15:36:35.398Z,26.22
2023-06-17T15:39:24.932Z,25.80
2023-06-17T15:41:53.390Z,26.26
2023-06-17T15:44:21.355Z,25.51
2023-06-17T15:46:48.392Z,25.24
2023-06-17T15:49:15.760Z,26.13
2023-06-17T15:51:42.707Z,25.39
2023-06-17T15:54:09.309Z,24.71
2023-06-17T15:56:37.302Z,25.08
2023-06-17T15:59:05.364Z,24.96
2023-06-17T16:01:32.101Z,25.19
2023-06-17T16:03:58.720Z,25.81
2023-06-17T16:06:26.779Z,25.92
2023-06-17T16:08:54.535Z,25.56
2023-06-17T16:11:21.380Z,25.71
2023-06-17T16:13:48.550Z,24.35
2023-06-17T16:16:15.124Z,25.45
2023-06-17T16:18:41.737Z,25.12
2023-06-17T16:21:08.315Z,24.89
2023-06-17T16:23:34.966Z,25.62
2023-06-17T16:26:02.222Z,25.35
2023-06-17T16:28:28.790Z,25.61
2023-06-17T16:30:55.540Z,25.82
2023-06-17T16:33:22.064Z,25.08
2023-06-17T16:35:48.712Z,25.89
2023-06-17T16:38:15.719Z,25.22
2023-06-17T16:40:42.309Z,25.84
2023-06-17T16:43:08.843Z,25.46
2023-06-17T16:45:35.504Z,26.24
2023-06-17T16:48:02.135Z,26.09
2023-06-17T16:50:28.806Z,26.02
2023-06-17T16:52:55.377Z,25.24
2023-06-17T16:55:21.926Z,26.40
2023-06-17T16:57:48.524Z,26.24
2023-06-17T17:00:15.130Z,25.14
2023-06-17T17:02:41.813Z,26.21
2023-06-17T17:05:09.553Z,25.68
2023-06-17T17:07:36.099Z,26.08
2023-06-17T17:10:02.960Z,26.50
2023-06-17T17:12:29.585Z,26.09
2023-06-17T17:14:56.727Z,25.50
2023-06-17T17:17:23.446Z,26.70
2023-06-17T17:19:50.096Z,26.71
2023-06-17T17:22:16.769Z,26.47
2023-06-17T17:24:44.346Z,26.58
2023-06-17T17:27:11.417Z,26.91
2023-06-17T17:29:38.003Z,26.96
2023-06-17T17:32:05.584Z,26.44
2023-06-17T17:34:32.260Z,27.30
2023-06-17T17:36:58.840Z,27.25
2023-06-17T17:39:25.478Z,27.52
2023-06-17T17:41:52.021Z,28.08
2023-06-17T17:44:18.540Z,27.98
2023-06-17T17:46:45.096Z,28.15
2023-06-17T17:49:11.662Z,27.75
2023-06-17T17:51:38.252Z,28.31
2023-06-17T17:54:04.802Z,28.93
2023-06-17T17:56:32.346Z,28.46
2023-06-17T17:58:59.137Z,28.89
2023-06-17T18:01:26.328Z,29.29
2023-06-17T18:03:53.329Z,29.02
2023-06-17T18:06:19.959Z,28.99
2023-06-17T18:08:46.756Z,28.62
2023-06-17T18:11:13.527Z,29.44
2023-06-17T18:13:40.087Z,28.82
2023-06-17T18:16:06.850Z,29.05
2023-06-17T18:18:33.452Z,29.55
2023-06-17T18:20:59.959Z,29.53
2023-06-17T18:23:26.982Z,30.11
2023-06-17T18:25:53.619Z,30.26
2023-06-17T18:28:20.209Z,31.77
2023-06-17T18:30:46.798Z,31.88
2023-06-17T18:33:13.368Z,32.19
2023-06-17T18:35:40.072Z,33.30
2023-06-17T18:38:08.534Z,32.57
2023-06-17T18:40:36.113Z,33.17
2023-06-17T18:43:03.692Z,33.54
2023-06-17T18:45:30.689Z,34.24
2023-06-17T18:47:57.238Z,34.67
2023-06-17T18:50:24.018Z,34.45
2023-06-17T18:52:53.502Z,34.75
2023-06-17T18:55:20.124Z,34.89
2023-06-17T18:57:46.792Z,35.65
2023-06-17T19:00:13.601Z,35.39
2023-06-17T19:02:40.214Z,35.81
2023-06-17T19:05:07.297Z,35.73
2023-06-17T19:07:34.127Z,35.92
2023-06-17T19:10:01.189Z,36.73
2023-06-17T19:12:31.806Z,36.56
2023-06-17T19:14:59.028Z,36.92
2023-06-17T19:17:26.936Z,36.83
2023-06-17T19:19:53.762Z,37.49
2023-06-17T19:22:20.547Z,37.45
2023-06-17T19:24:47.562Z,37.81
2023-06-17T19:27:14.990Z,37.18
2023-06-17T19:29:43.830Z,38.28
2023-06-17T19:32:10.344Z,37.95
2023-06-17T19:34:37.365Z,38.45
2023-06-17T19:37:04.674Z,38.77
2023-06-17T19:39:31.369Z,40.86
2023-06-17T19:41:57.951Z,41.15
2023-06-17T19:44:24.615Z,42.70
2023-06-17T19:46:51.282Z,44.45
2023-06-17T19:49:17.858Z,43.65
2023-06-17T19:51:44.470Z,43.03
2023-06-17T19:54:11.107Z,42.38
2023-06-17T19:56:37.632Z,41.55
2023-06-17T19:59:04.416Z,40.37
2023-06-17T20:01:31.690Z,42.14
2023-06-17T20:03:58.257Z,42.57
2023-06-17T20:06:26.652Z,41.66
2023-06-17T20:08:53.612Z,42.61
2023-06-17T20:11:20.570Z,42.84
2023-06-17T20:13:48.092Z,42.91
2023-06-17T20:16:14.768Z,43.47
2023-06-17T20:18:41.358Z,43.70
2023-06-17T20:21:07.903Z,44.51
2023-06-17T20:23:34.644Z,43.12
2023-06-17T20:26:01.411Z,43.40
2023-06-17T20:28:29.350Z,43.04
2023-06-17T20:30:58.049Z,43.88
2023-06-17T20:33:24.595Z,43.32
2023-06-17T20:35:54.979Z,44.91
2023-06-17T20:38:21.776Z,46.44
2023-06-17T20:40:48.520Z,49.55
2023-06-17T20:43:16.005Z,47.35
2023-06-17T20:45:42.842Z,46.61
2023-06-17T20:48:09.509Z,45.96
2023-06-17T20:50:36.159Z,46.17
2023-06-17T20:53:02.950Z,45.57
2023-06-17T20:55:29.898Z,46.38
2023-06-17T20:57:57.085Z,48.20
2023-06-17T21:00:24.152Z,47.68
2023-06-17T21:02:51.463Z,48.53
2023-06-17T21:05:18.398Z,48.38
2023-06-17T21:07:46.406Z,48.23
2023-06-17T21:10:13.567Z,47.33
2023-06-17T21:12:40.204Z,47.47
2023-06-17T21:15:07.935Z,47.65
2023-06-17T21:17:34.819Z,48.36
2023-06-17T21:20:01.525Z,47.69
2023-06-17T21:22:28.176Z,47.69
2023-06-17T21:24:54.724Z,48.39
2023-06-17T21:27:21.434Z,49.13
2023-06-17T21:29:48.060Z,49.41
2023-06-17T21:32:14.756Z,50.51
2023-06-17T21:34:41.360Z,49.39
2023-06-17T21:37:09.095Z,50.13
2023-06-17T21:39:35.959Z,49.68
2023-06-17T21:42:02.531Z,50.41
2023-06-17T21:44:29.295Z,49.94
2023-06-17T21:46:56.274Z,50.71
2023-06-17T21:49:23.775Z,50.68
2023-06-17T21:51:51.469Z,50.70
2023-06-17T21:54:17.996Z,51.34
2023-06-17T21:56:44.998Z,51.57
2023-06-17T21:59:11.612Z,51.90
2023-06-17T22:01:38.118Z,51.41
2023-06-17T22:04:05.037Z,51.32
2023-06-17T22:06:32.306Z,51.63
2023-06-17T22:08:58.951Z,52.87
2023-06-17T22:11:25.569Z,52.35
2023-06-17T22:13:52.188Z,52.79
2023-06-17T22:16:19.202Z,53.17
2023-06-17T22:18:46.144Z,53.64
2023-06-17T22:21:12.969Z,53.92
2023-06-17T22:23:39.661Z,54.20
2023-06-17T22:26:06.262Z,55.11
2023-06-17T22:28:32.790Z,54.48
2023-06-17T22:30:59.450Z,55.71
2023-06-17T22:33:26.185Z,56.16
2023-06-17T22:35:53.516Z,56.19
2023-06-17T22:38:20.381Z,58.50
2023-06-17T22:40:47.114Z,57.62
2023-06-17T22:43:14.716Z,56.61
2023-06-17T22:45:41.285Z,57.17
2023-06-17T22:48:07.961Z,57.55
2023-06-17T22:50:36.044Z,58.17
2023-06-17T22:53:02.591Z,58.23
2023-06-17T22:55:29.077Z,59.16
2023-06-17T22:57:55.576Z,59.15
2023-06-17T23:00:22.290Z,60.18
2023-06-17T23:02:49.189Z,59.40
2023-06-17T23:05:16.149Z,58.76
2023-06-17T23:07:42.791Z,59.26
2023-06-17T23:10:09.455Z,60.28
2023-06-17T23:12:36.066Z,60.65
2023-06-17T23:15:03.648Z,61.73
2023-06-17T23:17:30.216Z,62.53
2023-06-17T23:20:01.117Z,63.29
2023-06-17T23:22:28.152Z,62.91
2023-06-17T23:24:54.968Z,63.39
2023-06-17T23:27:27.885Z,65.42
2023-06-17T23:29:56.138Z,66.01
2023-06-17T23:32:24.149Z,67.16
2023-06-17T23:34:53.218Z,65.32
2023-06-17T23:37:21.322Z,64.03
2023-06-17T23:39:48.339Z,64.68
2023-06-17T23:42:14.878Z,64.12
2023-06-17T23:44:41.401Z,64.77
2023-06-17T23:47:08.523Z,65.80
2023-06-17T23:49:39.216Z,67.69
2023-06-17T23:52:07.214Z,68.69
2023-06-17T23:54:34.193Z,68.99
2023-06-17T23:57:00.923Z,69.75
2023-06-17T23:59:27.491Z,69.47
